Time;durP1;ratioP1;P1;durP2;ratioP2;P2;SDS_P1;SDS_P2;PMS_P1;PMS_P2;Temp;Humidity;BMP_temperature;BMP_pressure;BME280_temperature;BME280_humidity;BME280_pressure;Samples;Min_cycle;Max_cycle;Signal;HPM_P1;HPM_P2
2024/01/10 00:02:22;;;;;;;14.53;8.13;;;;;;;-7.67;84.27;102617.22;4970697;28;20231;-72
2024/01/10 00:04:48;;;;;;;17.93;8.97;;;;;;;-7.68;84.80;102618.91;4969736;28;20222;-73
2024/01/10 00:07:15;;;;;;;15.97;8.57;;;;;;;-7.68;84.25;102613.75;4972024;28;20452;-73
2024/01/10 00:09:42;;;;;;;13.07;7.73;;;;;;;-7.66;85.00;102613.81;4966855;28;20212;-73
2024/01/10 00:12:09;;;;;;;16.93;8.33;;;;;;;-7.62;84.54;102605.38;4967345;28;20220;-72
2024/01/10 00:14:35;;;;;;;14.73;8.10;;;;;;;-7.61;84.27;102597.66;4972463;28;20211;-72
2024/01/10 00:17:02;;;;;;;17.97;9.40;;;;;;;-7.63;84.70;102590.66;4969353;28;20282;-72
2024/01/10 00:19:29;;;;;;;17.83;8.73;;;;;;;-7.63;84.84;102585.47;4971667;28;20594;-73
2024/01/10 00:21:55;;;;;;;18.63;9.57;;;;;;;-7.65;84.10;102580.25;4974156;28;20225;-73
2024/01/10 00:24:22;;;;;;;17.97;8.63;;;;;;;-7.65;84.79;102587.13;4967997;28;20215;-72
2024/01/10 00:26:50;;;;;;;15.40;8.27;;;;;;;-7.70;84.84;102577.47;4971969;28;20231;-73
2024/01/10 00:29:16;;;;;;;16.73;8.40;;;;;;;-7.71;84.65;102586.06;4974873;28;20222;-73
2024/01/10 00:31:42;;;;;;;17.53;7.77;;;;;;;-7.71;85.14;102578.31;4965777;28;21105;-72
2024/01/10 00:34:09;;;;;;;18.70;9.10;;;;;;;-7.71;84.55;102574.84;4965032;28;20207;-72
2024/01/10 00:36:35;;;;;;;15.87;8.37;;;;;;;-7.72;84.97;102573.94;4965790;28;20232;-73
2024/01/10 00:39:02;;;;;;;12.60;7.53;;;;;;;-7.70;84.91;102577.47;4963691;28;20214;-73
2024/01/10 00:41:28;;;;;;;14.67;7.73;;;;;;;-7.71;84.96;102578.31;4967014;28;20640;-72
2024/01/10 00:43:56;;;;;;;19.73;8.73;;;;;;;-7.71;84.75;102578.31;4970447;28;20680;-73
2024/01/10 00:46:23;;;;;;;16.67;8.27;;;;;;;-7.70;85.00;102574.00;4964062;28;20305;-72
2024/01/10 00:48:49;;;;;;;16.47;8.03;;;;;;;-7.73;85.21;102568.72;4964560;28;20236;-73
2024/01/10 00:51:16;;;;;;;15.27;8.43;;;;;;;-7.74;85.17;102579.88;4970152;28;20216;-73
2024/01/10 00:53:42;;;;;;;18.47;9.27;;;;;;;-7.75;85.19;102591.94;4970122;28;20215;-72
2024/01/10 00:56:09;;;;;;;17.13;8.63;;;;;;;-7.78;85.81;102576.28;4970058;28;20607;-72
2024/01/10 00:58:36;;;;;;;15.23;8.40;;;;;;;-7.81;84.74;102577.84;4966706;28;20346;-73
2024/01/10 01:01:04;;;;;;;17.63;8.97;;;;;;;-7.83;84.99;102582.06;4972637;28;20200;-73
2024/01/10 01:03:31;;;;;;;20.30;9.57;;;;;;;-7.84;85.53;102583.75;4971846;28;20224;-73
2024/01/10 01:05:57;;;;;;;21.57;8.80;;;;;;;-7.85;85.08;102576.81;4969432;28;20747;-72
2024/01/10 01:08:23;;;;;;;17.67;8.53;;;;;;;-7.85;85.90;102576.81;4969430;28;20455;-73
2024/01/10 01:10:50;;;;;;;15.67;8.93;;;;;;;-7.88;85.57;102584.44;4969160;28;20205;-72
2024/01/10 01:13:17;;;;;;;17.80;9.07;;;;;;;-7.86;85.73;102576.75;4974825;28;20212;-73
2024/01/10 01:15:44;;;;;;;20.37;9.73;;;;;;;-7.87;85.74;102580.16;4964397;28;20212;-73
2024/01/10 01:18:12;;;;;;;14.43;7.97;;;;;;;-7.87;85.92;102585.34;4975955;28;20222;-73
2024/01/10 01:20:39;;;;;;;20.60;10.07;;;;;;;-7.86;85.89;102589.69;4975524;28;20205;-73
2024/01/10 01:23:05;;;;;;;20.07;10.00;;;;;;;-7.87;85.79;102581.03;4972942;28;20739;-73
2024/01/10 01:25:32;;;;;;;18.53;9.60;;;;;;;-7.89;86.03;102590.47;4964683;28;20291;-73
2024/01/10 01:27:58;;;;;;;20.50;9.53;;;;;;;-7.89;86.07;102589.59;4970723;28;20219;-73
2024/01/10 01:30:25;;;;;;;17.30;9.13;;;;;;;-7.90;86.80;102590.41;4967950;28;20200;-72
2024/01/10 01:32:52;;;;;;;23.13;9.63;;;;;;;-7.89;86.10;102585.28;4966479;28;20200;-73
2024/01/10 01:35:22;;;;;;;17.47;8.93;;;;;;;-7.87;86.91;102593.97;4967427;28;20212;-73
2024/01/10 01:37:49;;;;;;;17.63;9.37;;;;;;;-7.93;86.64;102593.72;4970640;28;20737;-73
2024/01/10 01:40:16;;;;;;;17.97;9.07;;;;;;;-7.93;86.54;102595.44;4966569;28;20204;-73
2024/01/10 01:42:44;;;;;;;17.97;9.60;;;;;;;-7.94;86.92;102589.38;4967245;28;20242;-73
2024/01/10 01:45:11;;;;;;;20.50;9.50;;;;;;;-7.94;87.18;102585.91;4971619;28;20574;-73
2024/01/10 01:47:38;;;;;;;17.43;9.60;;;;;;;-7.94;86.57;102586.78;4970571;28;20483;-73
2024/01/10 01:50:05;;;;;;;19.77;9.13;;;;;;;-7.94;87.01;102589.38;4970441;28;20557;-73
2024/01/10 01:52:35;;;;;;;20.87;9.53;;;;;;;-7.96;87.14;102583.25;4966611;28;20200;-73
2024/01/10 01:55:02;;;;;;;22.17;9.57;;;;;;;-7.95;86.57;102579.84;4970490;28;20650;-74
2024/01/10 01:57:28;;;;;;;20.10;8.77;;;;;;;-7.96;86.89;102580.66;4966950;28;20394;-73
2024/01/10 01:59:55;;;;;;;20.23;9.33;;;;;;;-7.95;86.54;102577.25;4969711;28;20204;-74
2024/01/10 02:02:23;;;;;;;19.33;10.20;;;;;;;-7.96;86.77;102575.50;4967320;28;20228;-73
2024/01/10 02:04:49;;;;;;;21.47;10.87;;;;;;;-7.97;86.65;102572.84;4967520;28;20213;-73
2024/01/10 02:07:16;;;;;;;19.60;9.63;;;;;;;-7.99;87.27;102570.19;4969621;28;20750;-73
2024/01/10 02:09:44;;;;;;;19.40;10.10;;;;;;;-8.01;87.66;102574.41;4968252;28;20588;-73
2024/01/10 02:12:10;;;;;;;20.03;9.77;;;;;;;-8.03;87.31;102581.22;4965542;28;20465;-73
2024/01/10 02:14:37;;;;;;;18.70;9.77;;;;;;;-8.03;87.52;102572.56;4965827;28;20204;-73
2024/01/10 02:17:03;;;;;;;22.20;9.63;;;;;;;-8.05;87.72;102572.50;4968663;28;20228;-73
2024/01/10 02:19:32;;;;;;;18.67;9.07;;;;;;;-8.05;87.40;102567.34;4965150;28;20209;-73
2024/01/10 02:21:58;;;;;;;19.57;8.83;;;;;;;-8.07;87.72;102562.13;4963762;28;20208;-73
2024/01/10 02:24:25;;;;;;;19.40;9.77;;;;;;;-8.08;87.39;102559.47;4968160;28;20219;-73
2024/01/10 02:26:53;;;;;;;20.63;9.60;;;;;;;-8.09;87.89;102549.94;4968992;28;20238;-73
2024/01/10 02:29:19;;;;;;;20.90;9.80;;;;;;;-8.12;87.90;102554.97;4966425;28;20208;-73
2024/01/10 02:31:45;;;;;;;21.70;10.90;;;;;;;-8.12;88.33;102561.03;4969822;28;20696;-74
2024/01/10 02:34:12;;;;;;;18.83;10.07;;;;;;;-8.12;87.72;102554.97;4968078;28;20810;-73
2024/01/10 02:36:38;;;;;;;20.03;10.33;;;;;;;-8.14;87.94;102547.16;4967172;28;20471;-73
2024/01/10 02:39:05;;;;;;;23.47;10.23;;;;;;;-8.17;88.33;102543.56;4969893;28;20204;-73
2024/01/10 02:41:32;;;;;;;22.73;10.83;;;;;;;-8.20;88.52;102541.72;4970927;28;20815;-73
2024/01/10 02:43:59;;;;;;;18.93;10.70;;;;;;;-8.19;88.25;102542.59;4969222;28;20232;-73
2024/01/10 02:46:27;;;;;;;22.43;10.60;;;;;;;-8.21;88.41;102550.28;4968877;28;20236;-73
2024/01/10 02:48:54;;;;;;;25.27;10.70;;;;;;;-8.23;88.87;102554.50;4970012;28;20582;-73
2024/01/10 02:51:22;;;;;;;18.20;9.20;;;;;;;-8.24;89.16;102554.47;4967572;28;20320;-75
2024/01/10 02:53:48;;;;;;;22.00;10.97;;;;;;;-8.25;89.06;102547.53;4970654;28;20215;-73
2024/01/10 02:56:15;;;;;;;19.40;9.07;;;;;;;-8.22;89.02;102550.22;4965106;28;20240;-73
2024/01/10 02:58:41;;;;;;;19.80;9.80;;;;;;;-8.23;88.86;102535.53;4969754;28;20215;-73
2024/01/10 03:01:09;;;;;;;23.53;10.73;;;;;;;-8.27;88.95;102533.66;4969955;28;20215;-73
2024/01/10 03:03:36;;;;;;;22.83;9.50;;;;;;;-8.29;89.65;102535.28;4965061;28;20523;-73
2024/01/10 03:06:02;;;;;;;22.83;9.33;;;;;;;-8.28;89.16;102537.94;4970084;28;20250;-73
2024/01/10 03:08:29;;;;;;;25.87;10.07;;;;;;;-8.29;89.48;102533.59;4969556;28;20694;-73
2024/01/10 03:10:55;;;;;;;22.80;10.40;;;;;;;-8.29;89.18;102535.28;4970903;28;20487;-72
2024/01/10 03:13:21;;;;;;;23.97;10.50;;;;;;;-8.28;89.67;102534.47;4965231;28;20208;-73
2024/01/10 03:15:48;;;;;;;24.40;10.50;;;;;;;-8.31;89.83;102537.78;4970128;28;20243;-74
2024/01/10 03:18:16;;;;;;;21.27;10.43;;;;;;;-8.26;89.58;102538.88;4968588;28;20213;-73
2024/01/10 03:20:43;;;;;;;22.43;10.63;;;;;;;-8.24;89.77;102538.97;4968587;28;20216;-73
2024/01/10 03:23:09;;;;;;;22.80;10.70;;;;;;;-8.25;89.56;102538.06;4965118;28;20483;-73
2024/01/10 03:25:36;;;;;;;24.93;11.03;;;;;;;-8.27;89.50;102537.13;4967915;28;20705;-73
2024/01/10 03:28:02;;;;;;;25.77;10.97;;;;;;;-8.28;89.53;102534.47;4970353;28;20444;-73
2024/01/10 03:30:29;;;;;;;21.30;9.30;;;;;;;-8.28;89.26;102527.59;4966510;28;20239;-73
2024/01/10 03:32:55;;;;;;;20.67;10.27;;;;;;;-8.31;89.75;102526.56;4968247;28;20209;-73
2024/01/10 03:35:23;;;;;;;17.73;9.03;;;;;;;-8.27;89.79;102542.28;4967882;28;20213;-73
2024/01/10 03:37:50;;;;;;;18.60;9.53;;;;;;;-8.28;89.29;102542.22;4967738;28;20700;-73
2024/01/10 03:40:16;;;;;;;23.03;10.40;;;;;;;-8.31;89.31;102542.97;4964465;28;20216;-73
2024/01/10 03:42:43;;;;;;;29.00;11.83;;;;;;;-8.32;89.43;102540.34;4966024;28;20232;-73
2024/01/10 03:45:10;;;;;;;22.23;10.37;;;;;;;-8.32;89.68;102538.66;4968378;28;20216;-73
2024/01/10 03:47:37;;;;;;;25.03;10.97;;;;;;;-8.33;89.76;102538.56;4969902;28;20475;-73
2024/01/10 03:50:03;;;;;;;19.20;9.50;;;;;;;-8.32;90.16;102535.19;4966966;28;20208;-73
2024/01/10 03:52:31;;;;;;;20.77;10.17;;;;;;;-8.32;89.83;102537.75;4970019;28;20650;-73
2024/01/10 03:54:58;;;;;;;19.10;10.17;;;;;;;-8.35;89.81;102532.44;4966852;28;20209;-73
2024/01/10 03:57:24;;;;;;;20.97;10.17;;;;;;;-8.36;89.50;102533.28;4968799;28;20231;-73
2024/01/10 03:59:51;;;;;;;19.13;9.73;;;;;;;-8.34;90.16;102526.47;4968272;28;20216;-73
2024/01/10 04:02:17;;;;;;;20.30;10.50;;;;;;;-8.33;89.92;102523.06;4967879;28;20660;-73
2024/01/10 04:04:44;;;;;;;21.33;10.23;;;;;;;-8.35;89.93;102525.59;4967358;28;20232;-73
2024/01/10 04:07:10;;;;;;;26.47;11.90;;;;;;;-8.35;89.68;102524.69;4968308;28;20755;-73
2024/01/10 04:09:38;;;;;;;24.27;10.87;;;;;;;-8.37;89.64;102516.00;4968084;28;20680;-73
2024/01/10 04:12:05;;;;;;;23.67;10.30;;;;;;;-8.38;89.93;102516.81;4970617;28;20207;-73
2024/01/10 04:14:31;;;;;;;22.73;10.77;;;;;;;-8.42;90.52;102514.09;4968140;28;20215;-73
2024/01/10 04:16:58;;;;;;;19.93;10.00;;;;;;;-8.42;89.87;102518.41;4967250;28;20238;-73
2024/01/10 04:19:25;;;;;;;24.70;10.70;;;;;;;-8.43;90.00;102527.84;4969934;28;20459;-74
2024/01/10 04:21:51;;;;;;;21.97;10.97;;;;;;;-8.44;90.12;102525.22;4965128;28;20536;-73
2024/01/10 04:24:18;;;;;;;22.67;11.07;;;;;;;-8.44;90.57;102530.38;4970298;28;20628;-73
2024/01/10 04:26:46;;;;;;;23.80;11.33;;;;;;;-8.45;90.68;102526.03;4969734;28;20228;-73
2024/01/10 04:29:12;;;;;;;21.87;11.23;;;;;;;-8.46;90.10;102527.72;4967628;28;20226;-73
2024/01/10 04:31:39;;;;;;;26.77;11.63;;;;;;;-8.45;90.50;102541.53;4967794;28;20209;-73
2024/01/10 04:34:05;;;;;;;23.73;10.87;;;;;;;-8.47;90.79;102525.94;4968347;28;20203;-73
2024/01/10 04:36:32;;;;;;;20.90;11.03;;;;;;;-8.46;90.81;102519.97;4966912;28;20243;-74
2024/01/10 04:38:58;;;;;;;21.83;10.90;;;;;;;-8.47;90.13;102520.78;4963338;28;20847;-73
2024/01/10 04:41:25;;;;;;;19.50;10.43;;;;;;;-8.48;90.50;102519.00;4969070;28;20213;-74
2024/01/10 04:43:53;;;;;;;22.17;10.23;;;;;;;-8.48;90.33;102528.47;4968154;28;20507;-73
2024/01/10 04:46:20;;;;;;;21.73;11.20;;;;;;;-8.49;90.47;102527.59;4966071;28;20239;-73
2024/01/10 04:48:46;;;;;;;23.63;10.67;;;;;;;-8.51;90.25;102524.03;4974695;28;20466;-73
2024/01/10 04:51:14;;;;;;;20.50;10.63;;;;;;;-8.50;90.74;102520.63;4966571;28;20362;-74
2024/01/10 04:53:41;;;;;;;23.73;11.17;;;;;;;-8.52;90.53;102519.69;4971813;28;20311;-74
2024/01/10 04:56:07;;;;;;;25.33;12.20;;;;;;;-8.52;90.26;102517.09;4967463;28;20242;-72
2024/01/10 04:58:34;;;;;;;20.90;10.60;;;;;;;-8.52;90.69;102508.47;4973378;28;20683;-72
2024/01/10 05:01:02;;;;;;;24.93;11.90;;;;;;;-8.54;89.97;102510.97;4970095;28;20212;-72
2024/01/10 05:03:28;;;;;;;25.97;11.97;;;;;;;-8.54;90.85;102513.56;4970979;28;20232;-72
2024/01/10 05:05:54;;;;;;;25.60;12.13;;;;;;;-8.53;90.11;102511.88;4965966;28;20251;-72
2024/01/10 05:08:21;;;;;;;21.27;10.77;;;;;;;-8.55;90.92;102508.34;4977213;28;20455;-72
2024/01/10 05:10:47;;;;;;;27.90;11.93;;;;;;;-8.56;90.63;102512.63;4979133;28;20203;-72
2024/01/10 05:13:14;;;;;;;22.90;11.33;;;;;;;-8.56;90.44;102512.63;4972577;28;20205;-72
2024/01/10 05:15:40;;;;;;;27.80;11.53;;;;;;;-8.58;90.73;102514.25;4969610;28;20212;-72
2024/01/10 05:18:08;;;;;;;24.80;11.13;;;;;;;-8.58;90.21;102510.78;4974556;28;20203;-72
2024/01/10 05:20:35;;;;;;;25.53;11.77;;;;;;;-8.60;89.96;102505.56;4972032;28;20994;-72
2024/01/10 05:23:01;;;;;;;25.80;11.87;;;;;;;-8.60;90.14;102508.16;4979013;28;20446;-73
2024/01/10 05:25:29;;;;;;;25.90;10.83;;;;;;;-8.61;89.84;102505.50;4975691;28;20819;-73
2024/01/10 05:27:55;;;;;;;22.60;11.43;;;;;;;-8.62;90.19;102503.72;4975539;28;20626;-72
2024/01/10 05:30:22;;;;;;;21.73;11.53;;;;;;;-8.63;89.85;102501.97;4967026;28;20212;-72
2024/01/10 05:32:49;;;;;;;20.70;11.10;;;;;;;-8.63;89.94;102496.81;4974153;28;20222;-72
2024/01/10 05:35:17;;;;;;;26.20;11.40;;;;;;;-8.64;90.06;102498.50;4964706;28;20205;-72
2024/01/10 05:37:43;;;;;;;24.73;11.50;;;;;;;-8.65;90.42;102503.59;4977320;28;20752;-72
2024/01/10 05:40:10;;;;;;;24.23;11.70;;;;;;;-8.65;90.13;102499.31;4973453;28;20453;-73
2024/01/10 05:42:37;;;;;;;24.77;12.60;;;;;;;-8.66;89.97;102499.25;4970396;28;20545;-72
2024/01/10 05:45:05;;;;;;;28.80;12.43;;;;;;;-8.68;90.50;102499.16;4973822;28;20412;-72
2024/01/10 05:47:32;;;;;;;27.07;11.90;;;;;;;-8.71;90.12;102490.41;4976137;28;20475;-72
2024/01/10 05:49:58;;;;;;;26.93;12.43;;;;;;;-8.71;90.15;102488.69;4977934;28;20554;-72
2024/01/10 05:52:26;;;;;;;23.80;11.83;;;;;;;-8.72;90.11;102489.50;4977389;28;20603;-71
2024/01/10 05:54:53;;;;;;;24.57;12.23;;;;;;;-8.73;90.31;102492.03;4978099;28;20239;-72
2024/01/10 05:57:21;;;;;;;22.13;10.43;;;;;;;-8.76;90.00;102492.78;4976276;28;20468;-72
2024/01/10 05:59:47;;;;;;;23.50;10.83;;;;;;;-8.79;90.73;102490.97;4976219;28;20985;-72
2024/01/10 06:02:16;;;;;;;25.70;12.30;;;;;;;-8.80;90.35;102485.72;4974411;28;21193;-72
2024/01/10 06:04:42;;;;;;;21.43;11.00;;;;;;;-8.81;90.81;102492.59;4978448;28;20263;-72
2024/01/10 06:07:09;;;;;;;25.00;12.17;;;;;;;-8.82;90.20;102492.53;4974017;28;20567;-72
2024/01/10 06:09:37;;;;;;;25.17;11.53;;;;;;;-8.85;90.39;102482.94;4970021;28;20448;-72
2024/01/10 06:12:04;;;;;;;25.17;11.87;;;;;;;-8.88;90.72;102493.13;4971541;28;20458;-72
2024/01/10 06:14:31;;;;;;;31.10;14.23;;;;;;;-8.88;90.67;102492.22;4972962;28;20594;-73
2024/01/10 06:16:59;;;;;;;28.40;13.23;;;;;;;-8.90;90.89;102493.84;4969659;28;20227;-72
2024/01/10 06:19:26;;;;;;;29.70;13.27;;;;;;;-8.91;91.04;102489.50;4972813;28;20935;-73
2024/01/10 06:21:52;;;;;;;32.63;13.27;;;;;;;-8.92;90.88;102498.06;4966871;28;20220;-72
2024/01/10 06:24:19;;;;;;;28.33;13.03;;;;;;;-8.93;91.18;102498.88;4960234;28;20259;-75
2024/01/10 06:26:47;;;;;;;29.23;13.47;;;;;;;-8.92;91.10;102492.91;4972625;28;20466;-75
2024/01/10 06:29:13;;;;;;;23.67;12.70;;;;;;;-8.90;91.19;102488.69;4972240;28;20444;-75
2024/01/10 06:31:40;;;;;;;31.07;14.67;;;;;;;-8.89;91.41;102491.34;4971012;28;20209;-72
2024/01/10 06:34:06;;;;;;;27.63;13.93;;;;;;;-8.86;92.29;102493.19;4972860;28;20291;-73
2024/01/10 06:36:32;;;;;;;33.20;13.90;;;;;;;-8.85;91.60;102490.69;4969396;28;20463;-73
2024/01/10 06:38:59;;;;;;;31.73;13.90;;;;;;;-8.83;91.78;102483.00;4974724;28;20444;-73
2024/01/10 06:41:25;;;;;;;36.37;14.00;;;;;;;-8.82;92.01;102483.06;4972880;28;20212;-74
2024/01/10 06:43:53;;;;;;;29.53;13.63;;;;;;;-8.81;91.59;102481.38;4974056;28;20499;-75
2024/01/10 06:46:20;;;;;;;30.73;13.77;;;;;;;-8.78;92.05;102494.44;4972963;28;20475;-74
2024/01/10 06:48:47;;;;;;;33.00;14.57;;;;;;;-8.75;91.67;102486.78;4972241;28;20966;-73
2024/01/10 06:51:13;;;;;;;27.87;13.23;;;;;;;-8.76;91.77;102488.50;4972869;28;20212;-74
2024/01/10 06:53:40;;;;;;;33.50;15.27;;;;;;;-8.76;91.70;102490.19;4969651;28;20448;-75
2024/01/10 06:56:09;;;;;;;31.43;14.47;;;;;;;-8.73;92.02;102503.25;4973467;28;20459;-74
2024/01/10 06:58:35;;;;;;;30.53;13.77;;;;;;;-8.69;91.88;102489.66;4973506;28;20212;-75
2024/01/10 07:01:04;;;;;;;29.50;13.73;;;;;;;-8.69;91.95;102491.34;4972712;28;20815;-76
2024/01/10 07:03:31;;;;;;;30.90;14.53;;;;;;;-8.70;91.69;102498.22;4971515;28;20459;-76
2024/01/10 07:05:58;;;;;;;36.83;15.33;;;;;;;-8.72;91.30;102491.22;4969610;28;20738;-78
2024/01/10 07:08:25;;;;;;;36.43;15.37;;;;;;;-8.74;91.31;102492.84;4969751;28;20240;-73
2024/01/10 07:10:52;;;;;;;29.33;13.77;;;;;;;-8.78;91.05;102487.53;4972446;28;20463;-75
2024/01/10 07:13:18;;;;;;;34.03;15.20;;;;;;;-8.80;91.95;102489.19;4970701;28;20457;-74
2024/01/10 07:15:46;;;;;;;34.40;15.20;;;;;;;-8.83;91.82;102491.63;4971478;28;20447;-75
2024/01/10 07:18:14;;;;;;;31.37;14.87;;;;;;;-8.82;91.63;102495.97;4972038;28;20216;-75
2024/01/10 07:20:40;;;;;;;37.67;15.50;;;;;;;-8.81;91.50;102496.88;4972863;28;20447;-75
2024/01/10 07:23:07;;;;;;;38.27;15.83;;;;;;;-8.81;91.65;102502.03;4973572;28;20973;-75
2024/01/10 07:25:33;;;;;;;28.93;13.97;;;;;;;-8.83;91.62;102491.63;4970966;28;20586;-76
2024/01/10 07:28:00;;;;;;;38.37;14.67;;;;;;;-8.79;91.86;102503.00;4975944;28;20212;-75
2024/01/10 07:30:27;;;;;;;35.43;15.50;;;;;;;-8.76;92.58;102503.09;4970806;28;20443;-77
2024/01/10 07:32:53;;;;;;;38.87;16.40;;;;;;;-8.74;92.17;102508.34;4975181;28;20459;-75
2024/01/10 07:35:21;;;;;;;41.27;16.60;;;;;;;-8.70;92.37;102513.72;4971103;28;20451;-75
2024/01/10 07:37:48;;;;;;;40.50;16.23;;;;;;;-8.65;91.97;102514.81;4974836;28;20270;-74
2024/01/10 07:40:14;;;;;;;36.13;17.43;;;;;;;-8.63;91.42;102507.13;4970688;28;20216;-73
2024/01/10 07:42:41;;;;;;;37.73;17.27;;;;;;;-8.63;91.36;102505.44;4974083;28;20451;-73
2024/01/10 07:45:08;;;;;;;40.70;17.43;;;;;;;-8.62;91.08;102514.94;4970814;28;20235;-73
2024/01/10 07:47:37;;;;;;;40.70;16.07;;;;;;;-8.62;90.53;102520.13;5007429;23;20235;-78
2024/01/10 07:50:05;;;;;;;34.87;16.07;;;;;;;-8.63;91.10;102522.63;5009043;28;20449;-78
2024/01/10 07:52:33;;;;;;;33.07;16.60;;;;;;;-8.64;90.74;102524.31;5024810;28;20194;-78
2024/01/10 07:54:59;;;;;;;38.00;16.93;;;;;;;-8.66;90.58;102517.31;5023452;28;20227;-78
2024/01/10 07:57:26;;;;;;;45.03;17.83;;;;;;;-8.63;90.95;102522.63;4994107;28;20219;-78
2024/01/10 07:59:53;;;;;;;38.17;17.07;;;;;;;-8.62;90.56;102522.69;4985126;28;20286;-78
2024/01/10 08:02:19;;;;;;;38.60;16.63;;;;;;;-8.62;90.97;102530.44;4982906;28;20447;-78
2024/01/10 08:04:46;;;;;;;39.80;16.80;;;;;;;-8.58;90.42;102527.16;4978367;28;20708;-78
2024/01/10 08:07:13;;;;;;;34.60;15.90;;;;;;;-8.59;90.43;102520.22;4992101;28;20822;-78
2024/01/10 08:09:41;;;;;;;42.13;18.03;;;;;;;-8.61;90.17;102519.31;4986439;28;20457;-78
2024/01/10 08:12:07;;;;;;;33.37;14.97;;;;;;;-8.60;90.42;102518.50;5012994;28;20442;-78
2024/01/10 08:14:34;;;;;;;43.37;18.50;;;;;;;-8.57;90.09;102510.84;4981709;28;20205;-78
2024/01/10 08:17:00;;;;;;;37.17;16.30;;;;;;;-8.57;89.86;102522.88;4988657;28;20199;-78
2024/01/10 08:19:27;;;;;;;31.97;15.13;;;;;;;-8.57;90.40;102523.75;4994601;28;20199;-78
2024/01/10 08:21:54;;;;;;;36.43;15.00;;;;;;;-8.61;90.09;102515.84;4989183;28;20451;-79
2024/01/10 08:24:20;;;;;;;37.97;15.03;;;;;;;-8.63;90.86;102518.34;4991624;28;21021;-79
2024/01/10 08:26:51;;;;;;;37.40;16.00;;;;;;;-8.65;90.58;102508.75;4986430;28;20447;-78
2024/01/10 08:29:18;;;;;;;38.30;17.30;;;;;;;-8.60;90.71;102509.84;4991031;28;20204;-78
2024/01/10 08:31:44;;;;;;;43.43;16.33;;;;;;;-8.57;90.51;102504.78;4992698;28;20798;-78
2024/01/10 08:34:11;;;;;;;37.40;17.83;;;;;;;-8.56;90.81;102517.78;4993849;28;20448;-78
2024/01/10 08:36:38;;;;;;;36.40;16.77;;;;;;;-8.56;90.80;102519.47;5005435;28;20545;-78
2024/01/10 08:39:06;;;;;;;45.47;16.77;;;;;;;-8.56;90.81;102515.19;5012824;28;20442;-78
2024/01/10 08:41:33;;;;;;;39.03;15.93;;;;;;;-8.52;90.96;102506.78;4994909;28;20505;-79
2024/01/10 08:44:00;;;;;;;37.50;16.23;;;;;;;-8.41;90.55;102515.84;4993467;28;20446;-79
2024/01/10 08:46:27;;;;;;;37.60;16.70;;;;;;;-8.42;90.23;102519.25;4992979;28;20246;-79
2024/01/10 08:48:53;;;;;;;38.77;17.63;;;;;;;-8.41;90.89;102513.28;4994493;28;20477;-78
2024/01/10 08:51:20;;;;;;;40.53;17.50;;;;;;;-8.38;90.88;102514.22;4990625;28;20542;-78
2024/01/10 08:53:46;;;;;;;39.37;16.20;;;;;;;-8.39;90.43;102515.03;4997788;28;20681;-78
2024/01/10 08:56:13;;;;;;;40.87;18.03;;;;;;;-8.31;90.66;102518.81;4988539;28;20816;-78
2024/01/10 08:58:39;;;;;;;38.90;17.33;;;;;;;-8.24;90.51;102513.13;4977494;28;20230;-78
2024/01/10 09:01:08;;;;;;;40.80;17.43;;;;;;;-8.25;90.12;102514.81;4978055;28;20451;-79
2024/01/10 09:03:34;;;;;;;39.57;17.37;;;;;;;-8.23;90.40;102510.56;4993342;28;20214;-79
2024/01/10 09:06:01;;;;;;;47.90;18.20;;;;;;;-8.18;89.87;102503.91;4991801;28;20223;-79
2024/01/10 09:08:29;;;;;;;46.57;19.37;;;;;;;-8.16;89.76;102509.13;4981307;28;21003;-79
2024/01/10 09:10:56;;;;;;;36.50;16.57;;;;;;;-8.12;90.44;102513.63;4982196;28;20208;-78
2024/01/10 09:13:22;;;;;;;44.83;19.70;;;;;;;-8.07;90.23;102504.38;4987708;28;20446;-79
2024/01/10 09:15:49;;;;;;;41.60;17.07;;;;;;;-8.02;90.12;102515.75;4990938;28;20235;-79
2024/01/10 09:18:17;;;;;;;47.17;19.47;;;;;;;-7.99;89.50;102510.72;4985746;28;20443;-78
2024/01/10 09:20:43;;;;;;;38.90;16.87;;;;;;;-7.93;89.53;102515.28;4991544;28;20204;-78
2024/01/10 09:23:10;;;;;;;44.90;19.93;;;;;;;-7.96;89.59;102508.28;5001534;28;20218;-79
2024/01/10 09:25:37;;;;;;;54.03;22.03;;;;;;;-7.92;90.03;102510.16;4993088;28;20290;-78
2024/01/10 09:28:05;;;;;;;46.57;20.43;;;;;;;-7.86;89.84;102509.50;4992059;28;20223;-79
2024/01/10 09:30:31;;;;;;;47.73;20.83;;;;;;;-7.79;89.88;102498.63;4991262;28;20207;-78
2024/01/10 09:32:58;;;;;;;47.73;19.80;;;;;;;-7.74;89.78;102507.44;4987712;28;20214;-78
2024/01/10 09:35:26;;;;;;;48.50;19.03;;;;;;;-7.69;89.01;102508.50;4997033;28;20639;-79
2024/01/10 09:37:53;;;;;;;52.23;22.60;;;;;;;-7.61;88.22;102498.47;4993389;28;20663;-79
2024/01/10 09:40:21;;;;;;;53.90;21.57;;;;;;;-7.61;87.69;102509.69;4997071;28;20727;-79
2024/01/10 09:42:50;;;;;;;42.00;18.63;;;;;;;-7.60;87.37;102495.06;4992579;28;20216;-79
2024/01/10 09:45:19;;;;;;;42.83;19.87;;;;;;;-7.56;88.07;102502.13;4998696;28;20245;-78
2024/01/10 09:47:49;;;;;;;49.10;21.37;;;;;;;-7.49;88.38;102501.53;4994633;28;20591;-78
2024/01/10 09:50:16;;;;;;;42.00;19.33;;;;;;;-7.42;88.05;102499.25;4993581;28;20207;-78
2024/01/10 09:52:51;;;;;;;46.97;20.63;;;;;;;-7.36;87.03;102504.69;4995327;28;20208;-79
2024/01/10 09:55:19;;;;;;;53.30;21.07;;;;;;;-7.31;86.79;102503.97;4991816;28;20226;-78
2024/01/10 09:57:45;;;;;;;48.97;21.90;;;;;;;-7.23;87.20;102489.63;4997424;28;20208;-79
2024/01/10 10:00:15;;;;;;;50.63;19.90;;;;;;;-7.22;87.21;102502.63;4999460;28;20242;-79
2024/01/10 10:02:42;;;;;;;49.70;21.30;;;;;;;-7.20;86.71;102495.81;4994406;28;20291;-79
2024/01/10 10:05:13;;;;;;;44.20;20.23;;;;;;;-7.15;86.39;102495.94;4994476;28;20235;-79
2024/01/10 10:07:49;;;;;;;47.10;20.80;;;;;;;-7.14;86.63;102503.78;5000098;28;20206;-79
2024/01/10 10:10:16;;;;;;;51.93;21.10;;;;;;;-7.12;86.29;102496.97;4993803;28;20214;-79
2024/01/10 10:12:43;;;;;;;50.13;21.90;;;;;;;-7.13;85.27;102487.41;4994580;28;21551;-78
2024/01/10 10:15:12;;;;;;;52.03;23.40;;;;;;;-7.05;85.98;102479.97;4997304;28;20223;-78
2024/01/10 10:17:44;;;;;;;51.37;22.13;;;;;;;-6.95;84.94;102483.75;4994378;28;20207;-79
2024/01/10 10:20:13;;;;;;;54.33;21.53;;;;;;;-6.94;85.02;102494.19;4987623;28;20207;-78
2024/01/10 10:22:40;;;;;;;48.57;20.67;;;;;;;-6.87;85.58;102480.63;4990703;28;20204;-78
2024/01/10 10:25:08;;;;;;;47.37;20.00;;;;;;;-6.86;85.18;102478.94;4987394;28;20232;-78
2024/01/10 10:27:37;;;;;;;52.67;21.03;;;;;;;-6.77;85.21;102471.47;4991312;28;20212;-78
2024/01/10 10:30:09;;;;;;;45.07;20.17;;;;;;;-6.70;85.37;102470.88;4994397;28;20675;-79
2024/01/10 10:32:35;;;;;;;52.03;21.17;;;;;;;-6.64;84.87;102468.53;4987791;28;20209;-79
2024/01/10 10:35:03;;;;;;;53.97;21.20;;;;;;;-6.59;85.16;102463.47;4993035;28;20235;-78
2024/01/10 10:37:29;;;;;;;49.77;20.60;;;;;;;-6.52;84.77;102474.13;4988419;28;20204;-79
2024/01/10 10:39:56;;;;;;;51.93;21.40;;;;;;;-6.56;83.88;102473.97;4990923;28;20208;-78
2024/01/10 10:42:25;;;;;;;47.93;20.67;;;;;;;-6.54;83.74;102462.81;4988927;28;20207;-79
2024/01/10 10:44:54;;;;;;;50.03;22.03;;;;;;;-6.56;83.49;102463.59;4986291;28;20223;-79
2024/01/10 10:47:24;;;;;;;48.27;21.90;;;;;;;-6.52;82.96;102465.47;4986175;28;20211;-78
2024/01/10 10:49:54;;;;;;;50.40;22.60;;;;;;;-6.51;83.20;102462.94;4984011;28;20298;-79
2024/01/10 10:52:23;;;;;;;51.97;20.97;;;;;;;-6.48;82.59;102463.03;4993035;28;20201;-79
2024/01/10 10:54:54;;;;;;;48.07;20.37;;;;;;;-6.46;83.17;102452.72;4989478;28;20232;-79
2024/01/10 10:57:22;;;;;;;47.30;20.13;;;;;;;-6.48;82.34;102456.97;4989573;28;20200;-79
2024/01/10 10:59:51;;;;;;;47.70;22.13;;;;;;;-6.50;82.70;102453.44;4980491;28;20220;-78
2024/01/10 11:02:23;;;;;;;51.80;22.23;;;;;;;-6.48;83.00;102463.03;4985755;28;20272;-79
2024/01/10 11:04:50;;;;;;;48.57;20.97;;;;;;;-6.41;83.49;102454.63;4980901;28;20282;-79
2024/01/10 11:07:16;;;;;;;55.17;23.97;;;;;;;-6.32;83.73;102460.16;4986610;28;20208;-79
2024/01/10 11:09:46;;;;;;;48.33;21.43;;;;;;;-6.24;83.49;102451.72;4979859;28;20211;-79
2024/01/10 11:12:28;;;;;;;50.13;22.37;;;;;;;-6.24;82.85;102456.91;4983135;28;20199;-79